Time;durP1;ratioP1;P1;durP2;ratioP2;P2;SDS_P1;SDS_P2;PMS_P1;PMS_P2;Temp;Humidity;BMP_temperature;BMP_pressure;BME280_temperature;BME280_humidity;BME280_pressure;Samples;Min_cycle;Max_cycle;Signal;HPM_P1;HPM_P2
2021/05/04 00:02:24;;;;;;;4.70;3.50;;;9.40;50.70;;;9.54;43.60;97255.72;5044038;28;20053;-42
2021/05/04 00:04:52;;;;;;;3.70;3.00;;;9.40;51.10;;;9.53;43.83;97254.91;5046030;28;20326;-41
2021/05/04 00:07:20;;;;;;;5.80;3.37;;;9.30;51.20;;;9.50;43.85;97255.25;5044850;28;20033;-42
2021/05/04 00:09:48;;;;;;;3.87;3.20;;;9.30;51.40;;;9.51;43.51;97242.78;5043993;28;20049;-43
2021/05/04 00:12:16;;;;;;;4.00;3.33;;;9.30;51.40;;;9.50;44.01;97241.97;5044733;28;20055;-42
2021/05/04 00:14:44;;;;;;;4.77;3.27;;;9.20;51.30;;;9.47;43.96;97244.94;5044163;28;20570;-42
2021/05/04 00:17:12;;;;;;;3.20;2.90;;;9.30;51.50;;;9.46;44.04;97241.47;5044888;28;20052;-43
2021/05/04 00:19:41;;;;;;;4.20;3.17;;;9.30;51.40;;;9.43;44.13;97241.78;5046135;28;20361;-42
2021/05/04 00:22:09;;;;;;;4.57;3.20;;;9.20;51.70;;;9.43;44.38;97235.66;5045210;28;20071;-41
2021/05/04 00:24:37;;;;;;;4.43;3.00;;;9.20;51.80;;;9.38;44.30;97233.50;5045268;28;20064;-41
2021/05/04 00:27:05;;;;;;;4.20;3.37;;;9.20;52.00;;;9.35;44.52;97230.31;5043305;28;20056;-42
2021/05/04 00:29:33;;;;;;;4.13;3.33;;;9.10;52.00;;;9.30;44.74;97230.78;5044798;28;20056;-43
2021/05/04 00:32:01;;;;;;;4.93;3.63;;;9.00;52.30;;;9.29;44.77;97220.34;5045775;28;20052;-42
2021/05/04 00:34:31;;;;;;;4.13;3.37;;;9.10;52.40;;;9.25;44.71;97218.00;5044638;28;20057;-41
2021/05/04 00:36:59;;;;;;;6.40;3.60;;;9.00;52.60;;;9.24;44.82;97211.03;5044417;28;20055;-43
2021/05/04 00:39:33;;;;;;;5.47;3.57;;;9.00;52.60;;;9.22;44.96;97215.66;5046329;28;20451;-41
2021/05/04 00:42:03;;;;;;;4.50;3.80;;;9.00;52.60;;;9.23;44.95;97206.72;5049297;28;20054;-42
2021/05/04 00:44:31;;;;;;;6.33;3.20;;;9.00;52.60;;;9.20;45.13;97207.03;5065564;28;20245;-42
2021/05/04 00:47:00;;;;;;;7.03;4.10;;;9.00;52.80;;;9.17;45.07;97204.72;5063815;28;20083;-41
2021/05/04 00:49:28;;;;;;;4.87;3.20;;;8.90;52.90;;;9.13;45.38;97197.22;5062981;28;20358;-43
2021/05/04 00:51:56;;;;;;;4.07;3.17;;;8.90;53.00;;;9.13;45.35;97199.88;5064957;28;20052;-42
2021/05/04 00:54:26;;;;;;;5.50;3.90;;;8.90;53.20;;;9.12;45.27;97193.75;5064746;28;20313;-41
2021/05/04 00:56:55;;;;;;;4.33;3.60;;;8.90;53.20;;;9.12;45.40;97193.75;5064683;28;20208;-42
2021/05/04 00:59:24;;;;;;;3.73;2.77;;;8.90;53.10;;;9.13;45.27;97194.56;5065787;28;20044;-44
2021/05/04 01:01:54;;;;;;;7.07;3.80;;;9.00;53.00;;;9.13;45.58;97189.25;5066155;28;20082;-41
2021/05/04 01:04:23;;;;;;;3.80;3.40;;;9.00;53.20;;;9.11;45.51;97185.94;5063757;28;20047;-43
2021/05/04 01:06:51;;;;;;;4.20;2.80;;;8.90;53.30;;;9.10;45.67;97178.97;5065169;28;20052;-44
2021/05/04 01:09:19;;;;;;;4.53;3.10;;;8.90;53.10;;;9.15;45.39;97174.00;5063404;28;20056;-42
2021/05/04 01:11:47;;;;;;;5.53;3.90;;;9.00;53.10;;;9.15;45.49;97169.53;5064256;28;20063;-42
2021/05/04 01:14:16;;;;;;;5.67;3.40;;;9.00;53.00;;;9.16;45.46;97170.34;5062858;28;20056;-42
2021/05/04 01:16:49;;;;;;;5.37;3.20;;;9.00;53.00;;;9.16;45.53;97165.03;5064281;28;20342;-43
2021/05/04 01:19:17;;;;;;;4.17;3.30;;;9.00;53.10;;;9.16;45.45;97165.03;5065127;28;20064;-42
2021/05/04 01:21:45;;;;;;;4.97;3.93;;;9.00;53.10;;;9.14;45.56;97159.88;5064306;28;20056;-43
2021/05/04 01:24:15;;;;;;;4.70;3.40;;;9.00;53.10;;;9.14;45.42;97154.59;5062884;28;20052;-42
2021/05/04 01:26:44;;;;;;;4.77;3.60;;;9.00;53.10;;;9.16;45.56;97149.94;5063944;28;20258;-42
2021/05/04 01:29:13;;;;;;;3.70;3.07;;;9.00;53.20;;;9.16;45.63;97138.50;5064546;28;20056;-41
2021/05/04 01:31:42;;;;;;;4.30;3.30;;;9.00;53.30;;;9.15;45.58;97135.00;5064088;28;20059;-44
2021/05/04 01:34:12;;;;;;;3.40;2.87;;;9.00;53.30;;;9.17;45.75;97134.81;5046539;28;20041;-42
2021/05/04 01:36:40;;;;;;;5.10;3.50;;;8.90;53.50;;;9.13;45.83;97126.38;5064619;28;20062;-42
2021/05/04 01:39:11;;;;;;;3.77;3.37;;;9.00;53.40;;;9.13;45.90;97123.72;5065145;28;20078;-42
2021/05/04 01:41:39;;;;;;;5.10;3.90;;;8.90;53.90;;;9.10;45.81;97110.75;5065554;28;20063;-43
2021/05/04 01:44:09;;;;;;;4.23;3.37;;;8.90;53.50;;;9.11;46.14;97111.59;5063157;28;20082;-42
2021/05/04 01:46:38;;;;;;;5.17;3.90;;;9.00;53.70;;;9.10;45.87;97109.94;5064465;28;20050;-43
2021/05/04 01:49:09;;;;;;;4.70;4.00;;;9.00;53.30;;;9.11;46.12;97106.28;5063394;28;20048;-43
2021/05/04 01:51:38;;;;;;;4.63;3.23;;;9.00;53.60;;;9.09;46.10;97109.09;5062858;28;20053;-41
2021/05/04 01:54:07;;;;;;;4.20;3.47;;;9.00;53.40;;;9.06;46.24;97106.78;5063345;28;20060;-42
2021/05/04 01:56:35;;;;;;;5.07;3.50;;;9.00;53.40;;;9.08;46.30;97104.78;5063308;28;20064;-43
2021/05/04 01:59:05;;;;;;;4.67;3.30;;;9.00;53.50;;;9.10;46.19;97094.81;5065882;28;20060;-42
2021/05/04 02:01:33;;;;;;;5.00;3.53;;;9.00;53.70;;;9.10;46.23;97091.34;5062514;28;20350;-42
2021/05/04 02:04:01;;;;;;;3.47;2.70;;;9.00;53.80;;;9.10;46.40;97089.53;5065339;28;20044;-43
2021/05/04 02:06:29;;;;;;;4.27;3.57;;;9.00;54.00;;;9.10;46.49;97086.88;5064197;28;20053;-45
2021/05/04 02:08:57;;;;;;;4.60;3.50;;;9.00;53.90;;;9.09;46.27;97084.38;5063042;28;20044;-42
2021/05/04 02:11:26;;;;;;;5.30;3.50;;;9.00;53.80;;;9.11;46.31;97085.88;5063891;28;20059;-44
2021/05/04 02:13:54;;;;;;;5.13;3.70;;;9.00;53.80;;;9.11;46.58;97082.38;5063923;28;20067;-42
2021/05/04 02:16:22;;;;;;;6.00;3.10;;;9.00;53.90;;;9.12;46.47;97076.09;5064121;28;20306;-41
2021/05/04 02:18:50;;;;;;;4.03;3.10;;;9.00;53.80;;;9.11;46.46;97067.28;5064847;28;20246;-41
2021/05/04 02:21:19;;;;;;;3.33;2.90;;;9.10;53.80;;;9.10;46.42;97065.63;5064108;28;20048;-42
2021/05/04 02:23:48;;;;;;;6.07;3.50;;;9.10;53.90;;;9.08;46.63;97062.31;5062679;28;20048;-41
2021/05/04 02:26:17;;;;;;;4.37;3.67;;;9.00;53.80;;;9.05;46.62;97059.97;5066515;28;20058;-43
2021/05/04 02:28:46;;;;;;;4.33;3.20;;;9.00;54.10;;;9.01;46.92;97056.81;5067266;28;20220;-43
2021/05/04 02:31:15;;;;;;;4.77;3.47;;;9.00;54.00;;;9.04;46.95;97053.00;5067477;28;20060;-42
2021/05/04 02:33:44;;;;;;;5.10;3.50;;;9.00;54.10;;;9.01;46.80;97040.06;5064465;28;20269;-41
2021/05/04 02:36:12;;;;;;;3.50;3.10;;;9.00;54.10;;;9.04;46.94;97045.03;5065770;28;20052;-43
2021/05/04 02:38:41;;;;;;;4.57;3.00;;;9.00;54.10;;;9.05;46.71;97041.38;5067070;28;20057;-42
2021/05/04 02:41:09;;;;;;;6.30;4.10;;;9.00;54.10;;;9.05;46.78;97036.91;5066138;28;20070;-41
2021/05/04 02:43:38;;;;;;;5.23;3.30;;;9.00;54.10;;;9.06;46.81;97021.81;5064182;28;20045;-41
2021/05/04 02:46:06;;;;;;;4.63;3.20;;;9.00;54.10;;;9.06;46.75;97025.28;5065544;28;20056;-42
2021/05/04 02:48:40;;;;;;;4.00;3.00;;;9.00;54.20;;;9.04;46.86;97019.31;5056563;28;20044;-42
2021/05/04 02:51:10;;;;;;;3.78;3.08;;;9.00;54.30;;;9.05;47.12;97014.81;5067452;28;20341;-41
2021/05/04 02:53:39;;;;;;;4.00;3.00;;;9.00;54.50;;;9.06;47.26;97017.31;5066860;28;20542;-41
2021/05/04 02:56:08;;;;;;;6.00;3.40;;;9.00;54.60;;;9.04;47.14;97007.88;5067342;28;20044;-42
2021/05/04 02:58:36;;;;;;;4.33;3.03;;;9.00;54.50;;;9.02;47.25;97004.56;5064802;28;20051;-44
2021/05/04 03:01:05;;;;;;;3.60;3.20;;;9.00;54.50;;;9.04;47.29;97007.88;5066146;28;20048;-42
2021/05/04 03:03:35;;;;;;;5.10;3.53;;;9.00;54.50;;;9.04;47.22;96992.75;5064661;28;20252;-43
2021/05/04 03:06:04;;;;;;;4.33;3.10;;;9.00;54.40;;;9.06;47.04;96984.63;5067442;28;20264;-42
2021/05/04 03:08:33;;;;;;;5.27;3.60;;;9.00;54.40;;;9.06;47.43;96990.78;5066667;28;20062;-44
2021/05/04 03:11:02;;;;;;;5.47;3.33;;;9.00;54.60;;;9.08;47.57;96980.00;5067430;28;20048;-42
2021/05/04 03:13:32;;;;;;;3.93;3.10;;;9.00;54.50;;;9.06;47.09;96969.53;5066505;28;20569;-42
2021/05/04 03:16:01;;;;;;;4.30;3.20;;;9.00;54.50;;;9.05;47.70;96969.69;5065277;28;20065;-45
2021/05/04 03:18:29;;;;;;;3.67;3.13;;;9.00;54.60;;;9.04;47.03;96968.03;5067014;28;20051;-41
2021/05/04 03:20:58;;;;;;;3.30;2.80;;;9.00;54.60;;;9.06;47.34;96974.84;5066834;28;20059;-41
2021/05/04 03:23:26;;;;;;;3.70;3.07;;;9.00;54.50;;;9.07;47.21;96970.34;5066826;28;20362;-41
2021/05/04 03:25:54;;;;;;;3.53;2.60;;;9.00;54.50;;;9.11;47.02;96971.69;5064963;28;20063;-41
2021/05/04 03:28:22;;;;;;;4.03;2.73;;;9.10;54.40;;;9.16;47.01;96965.88;5066379;28;20212;-42
2021/05/04 03:30:50;;;;;;;4.93;3.03;;;9.10;54.40;;;9.18;46.94;96963.88;5065919;28;20294;-40
2021/05/04 03:33:19;;;;;;;4.33;3.40;;;9.10;54.30;;;9.16;47.04;96957.91;5066377;28;20254;-42
2021/05/04 03:35:47;;;;;;;3.87;2.70;;;9.10;54.30;;;9.16;47.08;96953.41;5065235;28;20052;-43
2021/05/04 03:38:15;;;;;;;4.43;3.20;;;9.10;54.20;;;9.15;47.11;96945.59;5066850;28;20353;-43
2021/05/04 03:40:44;;;;;;;4.90;3.30;;;9.10;54.10;;;9.15;47.13;96946.47;5065867;28;20048;-43
2021/05/04 03:43:12;;;;;;;4.03;2.93;;;9.20;54.00;;;9.17;46.79;96939.16;5066389;28;20045;-41
2021/05/04 03:45:40;;;;;;;3.07;2.50;;;9.20;54.00;;;9.18;46.95;96932.81;5064904;28;20222;-41
2021/05/04 03:48:09;;;;;;;5.53;3.07;;;9.20;53.90;;;9.18;47.08;96932.81;5065385;28;20058;-42
2021/05/04 03:50:37;;;;;;;3.00;2.30;;;9.20;54.10;;;9.20;46.93;96927.34;5066506;28;20052;-44
2021/05/04 03:53:06;;;;;;;3.73;2.90;;;9.20;53.90;;;9.23;46.80;96924.38;5065192;28;20049;-42
2021/05/04 03:55:34;;;;;;;4.00;2.97;;;9.20;54.00;;;9.20;46.96;96920.19;5065257;28;20054;-44
2021/05/04 03:58:02;;;;;;;3.80;2.90;;;9.20;54.10;;;9.20;46.94;96916.72;5065952;28;20079;-41
2021/05/04 04:00:30;;;;;;;4.63;3.03;;;9.20;54.00;;;9.21;46.74;96915.75;5048241;28;20048;-41
2021/05/04 04:02:59;;;;;;;3.17;2.60;;;9.20;53.90;;;9.22;46.92;96907.56;5064009;28;20060;-41
2021/05/04 04:05:27;;;;;;;3.80;2.73;;;9.20;53.90;;;9.22;46.94;96904.91;5067331;28;20355;-42
2021/05/04 04:07:55;;;;;;;4.13;2.90;;;9.20;53.80;;;9.23;46.92;96895.97;5065211;28;20041;-43
2021/05/04 04:10:23;;;;;;;5.43;3.17;;;9.30;53.90;;;9.24;47.19;96894.97;5066066;28;20055;-43
2021/05/04 04:12:55;;;;;;;3.93;2.90;;;9.30;53.80;;;9.27;46.84;96899.94;5064612;28;20045;-42
2021/05/04 04:15:23;;;;;;;3.10;2.70;;;9.30;53.70;;;9.30;46.71;96896.09;5065613;28;20250;-42
2021/05/04 04:17:51;;;;;;;4.10;2.70;;;9.30;53.70;;;9.31;46.79;96888.97;5065163;28;20059;-45
2021/05/04 04:20:20;;;;;;;5.63;2.87;;;9.40;53.60;;;9.32;46.68;96888.78;5064652;28;20074;-41
2021/05/04 04:22:48;;;;;;;4.97;2.80;;;9.40;53.80;;;9.35;46.74;96883.16;5066469;28;20058;-40
2021/05/04 04:25:17;;;;;;;3.97;2.40;;;9.40;53.60;;;9.39;46.70;96870.34;5064693;28;20064;-41
2021/05/04 04:27:45;;;;;;;3.63;2.70;;;9.40;53.50;;;9.39;46.77;96876.47;5064238;28;20057;-42
2021/05/04 04:30:38;;;;;;;4.60;2.53;;;9.40;53.50;;;9.41;46.59;96869.16;5066839;28;20237;-42
2021/05/04 04:33:07;;;;;;;3.43;2.70;;;9.40;53.40;;;9.44;46.47;96865.31;5025389;28;20057;-45
2021/05/04 04:35:35;;;;;;;3.40;2.60;;;9.40;53.50;;;9.44;46.58;96865.31;5024863;28;20362;-44
2021/05/04 04:38:04;;;;;;;2.83;2.30;;;9.40;53.80;;;9.44;46.48;96863.53;5025161;28;20050;-45
2021/05/04 04:40:32;;;;;;;5.40;2.73;;;9.40;53.40;;;9.49;46.46;96868.31;5025501;28;20250;-43
2021/05/04 04:43:00;;;;;;;4.37;2.90;;;9.50;53.70;;;9.52;46.46;96865.31;5025044;28;20064;-44
2021/05/04 04:45:29;;;;;;;5.47;3.40;;;9.50;53.70;;;9.51;46.55;96868.13;5026643;28;20049;-43
2021/05/04 04:47:57;;;;;;;4.53;2.97;;;9.50;53.50;;;9.53;46.75;96861.63;5025526;28;20049;-44
2021/05/04 04:50:26;;;;;;;3.40;2.60;;;9.50;53.60;;;9.53;46.53;96861.63;5024807;28;20053;-44
2021/05/04 04:52:54;;;;;;;5.50;3.23;;;9.50;53.60;;;9.57;46.54;96857.63;5038430;28;20057;-45
2021/05/04 04:55:22;;;;;;;2.80;2.50;;;9.60;53.70;;;9.60;46.71;96848.50;5024408;28;20049;-44
2021/05/04 04:57:51;;;;;;;4.90;3.00;;;9.60;53.60;;;9.64;46.60;96855.13;5024573;28;20056;-43
2021/05/04 05:00:20;;;;;;;3.33;2.60;;;9.60;53.60;;;9.68;46.48;96855.59;5026463;28;20064;-44
2021/05/04 05:02:48;;;;;;;3.63;3.10;;;9.70;53.50;;;9.69;46.55;96854.59;5026539;28;20057;-43
2021/05/04 05:05:17;;;;;;;4.33;2.80;;;9.70;53.50;;;9.71;46.45;96849.91;5024936;28;20412;-43
2021/05/04 05:07:45;;;;;;;4.00;3.00;;;9.70;53.60;;;9.74;46.49;96850.41;5025018;28;20243;-45
2021/05/04 05:10:14;;;;;;;5.07;2.97;;;9.70;53.50;;;9.76;46.48;96848.41;5024665;28;20068;-45
2021/05/04 05:12:42;;;;;;;5.23;3.10;;;9.80;53.60;;;9.79;46.48;96844.53;5024455;28;20701;-45
2021/05/04 05:15:11;;;;;;;4.17;2.80;;;9.80;53.50;;;9.80;46.38;96843.56;5024224;28;20057;-44
2021/05/04 05:17:40;;;;;;;4.17;2.50;;;9.80;53.30;;;9.83;46.37;96837.91;5024359;28;20050;-44
2021/05/04 05:20:09;;;;;;;3.73;2.73;;;9.80;53.50;;;9.86;46.43;96832.22;5024855;28;20057;-44
2021/05/04 05:22:38;;;;;;;5.07;2.40;;;9.80;53.50;;;9.89;46.36;96829.22;5023708;28;20357;-45
2021/05/04 05:25:08;;;;;;;4.57;3.03;;;9.90;53.50;;;9.94;46.49;96831.34;5024741;28;20045;-44
2021/05/04 05:27:37;;;;;;;4.50;2.90;;;9.90;53.50;;;9.94;46.42;96829.50;5023171;28;20235;-44
2021/05/04 05:30:10;;;;;;;5.20;2.63;;;10.00;53.60;;;9.97;46.41;96826.50;5024534;28;20243;-45
2021/05/04 05:32:38;;;;;;;3.50;2.37;;;10.00;53.60;;;9.99;46.65;96828.97;5023966;28;20777;-45
2021/05/04 05:35:08;;;;;;;3.90;2.50;;;10.00;53.60;;;10.00;46.56;96827.97;5024003;28;20046;-45
2021/05/04 05:37:37;;;;;;;4.10;2.70;;;10.00;53.60;;;10.04;46.57;96826.59;5024854;28;20056;-45
2021/05/04 05:40:06;;;;;;;4.97;2.77;;;10.10;53.60;;;10.07;46.75;96820.94;5025818;28;20258;-45
2021/05/04 05:42:34;;;;;;;3.83;2.90;;;10.10;53.60;;;10.08;46.55;96816.44;5024400;28;20060;-45
2021/05/04 05:45:03;;;;;;;4.33;2.53;;;10.10;53.70;;;10.10;46.83;96809.09;5024190;28;20045;-46
2021/05/04 05:47:32;;;;;;;3.53;2.67;;;10.10;53.70;;;10.10;46.73;96811.75;5024322;28;20076;-46
2021/05/04 05:50:00;;;;;;;5.70;2.97;;;10.10;53.80;;;10.12;46.57;96812.41;5026266;28;20051;-44
2021/05/04 05:52:29;;;;;;;4.13;2.60;;;10.20;53.60;;;10.12;46.80;96810.59;5024148;28;20064;-46
2021/05/04 05:54:57;;;;;;;3.40;2.77;;;10.20;53.80;;;10.13;46.92;96800.78;5024784;28;20071;-48
2021/05/04 05:57:26;;;;;;;3.70;3.20;;;10.10;53.90;;;10.14;46.55;96805.94;5024511;28;20041;-45
2021/05/04 05:59:54;;;;;;;3.27;2.60;;;10.20;53.80;;;10.14;46.69;96810.41;5026964;28;20045;-46
2021/05/04 06:02:23;;;;;;;4.33;3.20;;;10.20;53.80;;;10.15;46.79;96807.56;5028523;28;20259;-46
2021/05/04 06:04:52;;;;;;;3.57;2.90;;;10.20;53.70;;;10.16;46.78;96811.88;5027869;28;20061;-45
2021/05/04 06:07:20;;;;;;;4.13;2.80;;;10.20;53.60;;;10.19;46.49;96816.00;5026611;28;20367;-44
2021/05/04 06:09:48;;;;;;;3.47;2.80;;;10.30;53.70;;;10.22;46.55;96808.50;5027908;28;20069;-44
2021/05/04 06:12:17;;;;;;;3.43;2.47;;;10.30;53.70;;;10.27;46.90;96804.47;5027289;28;20322;-45
2021/05/04 06:14:45;;;;;;;4.37;2.70;;;10.30;53.80;;;10.28;46.57;96804.31;5028130;28;20053;-45
2021/05/04 06:17:14;;;;;;;3.43;2.60;;;10.40;53.50;;;10.24;46.92;96808.34;5028368;28;20041;-47
2021/05/04 06:19:43;;;;;;;3.80;2.60;;;10.40;53.40;;;10.31;46.58;96801.31;5029001;28;20053;-46
2021/05/04 06:22:12;;;;;;;3.13;2.53;;;10.50;53.50;;;10.31;46.73;96803.97;5026985;28;20072;-44
2021/05/04 06:24:40;;;;;;;5.90;3.67;;;10.50;53.40;;;10.37;46.81;96799.75;5027956;28;20064;-44
2021/05/04 06:27:08;;;;;;;5.00;2.63;;;10.60;53.40;;;10.45;46.85;96794.38;5026359;28;20076;-45
2021/05/04 06:29:37;;;;;;;3.90;2.67;;;10.60;53.30;;;10.56;46.53;96787.78;5027500;28;20049;-44
2021/05/04 06:32:11;;;;;;;3.10;2.77;;;10.80;53.30;;;10.64;46.81;96790.34;5028644;28;20256;-45
2021/05/04 06:34:40;;;;;;;2.90;2.33;;;10.80;53.10;;;10.70;46.49;96789.63;5027932;28;20061;-43
2021/05/04 06:37:08;;;;;;;4.60;2.37;;;10.90;52.90;;;10.73;46.18;96781.28;5025941;28;20056;-43
2021/05/04 06:39:38;;;;;;;3.73;2.53;;;11.00;52.70;;;10.83;46.26;96778.34;5027506;28;20059;-45
2021/05/04 06:42:06;;;;;;;5.03;2.90;;;11.10;52.80;;;10.88;45.96;96783.94;5028477;28;20080;-43
2021/05/04 06:44:35;;;;;;;4.27;2.67;;;11.20;52.70;;;10.97;46.09;96782.84;5026486;28;20061;-45
2021/05/04 06:47:04;;;;;;;5.57;2.92;;;11.20;52.60;;;11.06;46.45;96785.41;5026207;28;20076;-44
2021/05/04 06:49:32;;;;;;;3.88;2.22;;;11.30;52.80;;;11.13;46.14;96783.66;5028105;28;20381;-44
2021/05/04 06:52:01;;;;;;;2.93;2.63;;;11.40;52.60;;;11.18;46.28;96783.91;5027326;28;20064;-44
2021/05/04 06:54:29;;;;;;;4.60;2.50;;;11.50;52.50;;;11.28;46.21;96775.63;5028062;28;20348;-44
2021/05/04 06:56:58;;;;;;;4.72;2.80;;;11.50;52.40;;;11.34;45.79;96767.72;5027668;28;20057;-48
2021/05/04 06:59:26;;;;;;;9.95;2.80;;;11.60;52.50;;;11.43;45.89;96779.09;5026520;28;20057;-46
2021/05/04 07:01:56;;;;;;;10.30;2.83;;;11.70;52.40;;;11.49;45.64;96769.50;5027732;28;20060;-45
2021/05/04 07:04:26;;;;;;;3.17;2.17;;;11.80;52.20;;;11.59;45.95;96775.34;5026230;28;20083;-44
2021/05/04 07:08:10;;;;;;;4.45;2.80;;;11.90;52.30;;;11.67;44.69;96769.06;5026486;28;20045;-43
2021/05/04 07:10:38;;;;;;;2.47;2.03;;;11.90;51.20;;;11.73;43.45;96765.66;5026153;28;20064;-45
2021/05/04 07:13:18;;;;;;;5.07;2.30;;;12.00;49.40;;;11.83;42.76;96764.34;5025724;28;20067;-43
2021/05/04 07:15:46;;;;;;;3.30;1.73;;;12.10;48.70;;;11.91;42.78;96760.75;5026235;28;20067;-45
2021/05/04 07:18:16;;;;;;;2.30;2.05;;;12.30;47.70;;;12.04;42.41;96762.72;5027471;28;20061;-45
2021/05/04 07:20:45;;;;;;;3.47;2.10;;;12.50;48.30;;;12.16;41.70;96757.69;5025317;28;20087;-45
2021/05/04 07:23:14;;;;;;;3.00;1.90;;;12.60;46.80;;;12.27;40.53;96764.31;5026400;28;20060;-49
2021/05/04 07:25:42;;;;;;;3.33;2.40;;;12.70;45.60;;;12.38;41.60;96764.63;5026318;28;20053;-45
2021/05/04 07:28:11;;;;;;;4.32;2.75;;;12.90;46.20;;;12.48;41.48;96764.28;5026590;28;20057;-45
2021/05/04 07:30:43;;;;;;;6.72;2.38;;;13.00;45.70;;;12.54;40.41;96749.31;5024985;28;20059;-46
2021/05/04 07:33:11;;;;;;;3.95;1.83;;;13.10;45.40;;;12.66;40.27;96744.25;5026703;28;20064;-46
2021/05/04 07:35:40;;;;;;;4.22;2.33;;;13.20;43.90;;;12.75;40.32;96735.91;5027247;28;20049;-45
2021/05/04 07:38:08;;;;;;;1.83;1.63;;;13.30;45.00;;;12.80;38.12;96738.00;5026380;28;20049;-45
2021/05/04 07:40:39;;;;;;;2.30;1.60;;;13.40;43.50;;;12.87;38.00;96735.34;5026944;28;20049;-45
2021/05/04 07:43:08;;;;;;;3.10;1.77;;;13.50;42.60;;;12.94;38.37;96731.69;5029039;28;20058;-46
2021/05/04 07:45:36;;;;;;;4.18;2.30;;;13.60;42.40;;;13.06;38.81;96721.25;5035812;28;20048;-46
2021/05/04 07:48:09;;;;;;;1.98;1.77;;;13.70;43.70;;;13.03;37.98;96724.34;5040966;28;20049;-50
2021/05/04 07:50:39;;;;;;;6.55;3.67;;;13.70;41.50;;;13.10;37.31;96722.50;5041604;28;20057;-44
2021/05/04 07:53:09;;;;;;;6.60;4.35;;;13.70;41.30;;;13.17;37.60;96712.66;5042111;28;20116;-43
2021/05/04 07:55:38;;;;;;;9.27;4.38;;;13.80;41.80;;;13.25;37.69;96713.53;5042593;28;20335;-45
2021/05/04 07:58:06;;;;;;;6.93;2.95;;;14.00;41.60;;;13.36;37.67;96732.50;5042088;28;20045;-45
2021/05/04 08:00:38;;;;;;;5.03;2.22;;;14.10;41.60;;;13.41;37.63;96728.41;5038271;28;20042;-48
2021/05/04 08:03:06;;;;;;;3.90;1.83;;;14.10;41.90;;;13.45;37.58;96733.13;5039697;28;20045;-46
2021/05/04 08:05:35;;;;;;;4.90;2.13;;;14.20;41.60;;;13.45;36.85;96729.63;5041872;28;20239;-46
2021/05/04 08:08:04;;;;;;;2.95;2.15;;;14.20;40.50;;;13.54;37.47;96729.25;5057145;28;20041;-48
2021/05/04 08:10:34;;;;;;;3.05;1.77;;;14.30;40.90;;;13.59;36.89;96726.81;5041176;28;20045;-45
2021/05/04 08:13:05;;;;;;;4.15;2.17;;;14.40;41.90;;;13.58;36.13;96725.16;5041677;28;20224;-48
2021/05/04 08:15:36;;;;;;;2.28;1.92;;;14.40;40.10;;;13.66;36.50;96739.38;5038471;28;20357;-46
2021/05/04 08:18:08;;;;;;;4.53;3.15;;;14.40;39.70;;;13.67;36.29;96698.22;5040568;28;20046;-45
2021/05/04 08:20:44;;;;;;;4.25;3.03;;;14.40;39.90;;;13.71;36.31;96731.56;5041820;28;20153;-45
2021/05/04 08:23:15;;;;;;;2.90;1.77;;;14.40;39.80;;;13.79;36.49;96726.00;5040841;28;20380;-47
2021/05/04 08:25:43;;;;;;;4.57;2.22;;;14.40;40.30;;;13.75;36.46;96701.53;5041634;28;20380;-45
2021/05/04 08:28:12;;;;;;;2.97;2.20;;;14.50;40.20;;;13.82;36.65;96708.72;5040944;28;20045;-46
2021/05/04 08:30:40;;;;;;;2.88;1.98;;;14.50;40.70;;;13.88;35.81;96732.81;5041387;28;20045;-46
2021/05/04 08:33:09;;;;;;;4.20;2.10;;;14.50;39.90;;;13.87;35.63;96720.47;5041987;28;20053;-45
2021/05/04 08:35:38;;;;;;;3.78;2.13;;;14.50;39.30;;;13.87;35.73;96701.72;5041081;28;20046;-46
2021/05/04 08:38:06;;;;;;;2.72;2.03;;;14.60;39.40;;;13.97;36.65;96701.31;5041658;28;20052;-48
2021/05/04 08:40:35;;;;;;;2.88;2.08;;;14.70;40.40;;;13.99;36.03;96707.28;5039838;28;20239;-46
2021/05/04 08:43:03;;;;;;;4.78;2.25;;;14.80;39.80;;;14.03;36.22;96705.03;5036102;28;20246;-45
2021/05/04 08:45:35;;;;;;;4.65;1.92;;;14.80;40.00;;;14.06;35.93;96697.41;5035007;28;20045;-46
2021/05/04 08:48:04;;;;;;;5.13;2.65;;;14.80;39.70;;;14.08;35.55;96702.56;5040185;28;20057;-47
2021/05/04 08:50:35;;;;;;;3.50;2.67;;;14.80;38.90;;;14.11;35.38;96713.69;5041319;28;20049;-45
2021/05/04 08:53:05;;;;;;;2.58;1.85;;;14.80;39.10;;;14.04;35.11;96704.00;5041577;28;20057;-45
2021/05/04 08:55:33;;;;;;;3.00;1.83;;;14.80;38.80;;;14.04;35.04;96683.41;5041410;28;20052;-45
2021/05/04 08:58:04;;;;;;;2.90;1.85;;;14.80;38.60;;;14.07;35.43;96700.91;5041288;28;20110;-46
2021/05/04 09:00:54;;;;;;;2.25;1.83;;;14.80;39.10;;;14.06;34.88;96718.00;5038832;28;20053;-44
2021/05/04 09:03:39;;;;;;;2.22;1.88;;;14.70;38.50;;;14.09;35.04;96715.72;5032467;28;20056;-48
2021/05/04 09:06:26;;;;;;;3.28;1.90;;;14.70;38.80;;;14.11;35.76;96723.56;5026082;28;20051;-49
2021/05/04 09:09:22;;;;;;;1.60;1.30;;;14.80;39.40;;;14.16;35.53;96711.19;5025152;28;20081;-45
2021/05/04 09:14:48;;;;;;;3.03;1.98;;;14.90;39.60;;;14.30;35.86;96693.28;5016546;28;20049;-44
2021/05/04 09:23:07;;;;;;;2.22;1.83;;;15.00;38.80;;;14.40;35.61;96689.34;5039540;28;20347;-49
2021/05/04 09:25:37;;;;;;;5.38;2.15;;;15.10;39.30;;;14.43;35.35;96683.59;5040079;28;20385;-47
2021/05/04 09:28:10;;;;;;;2.53;1.80;;;15.10;38.90;;;14.50;34.41;96712.00;5038780;28;20393;-47
2021/05/04 09:30:39;;;;;;;6.40;2.50;;;15.20;38.00;;;14.65;34.29;96689.53;5038314;28;20263;-47
2021/05/04 09:33:15;;;;;;;2.70;1.85;;;15.30;38.00;;;14.68;34.26;96687.25;5039442;28;20072;-45
2021/05/04 09:35:43;;;;;;;2.72;1.80;;;15.50;37.90;;;14.83;34.30;96700.41;5043613;28;20046;-46
2021/05/04 09:38:17;;;;;;;5.65;2.15;;;15.60;37.90;;;14.86;33.64;96681.22;5042817;28;20055;-45
2021/05/04 09:40:48;;;;;;;3.47;2.53;;;15.70;36.90;;;14.99;32.88;96692.94;5044968;28;20060;-45
2021/05/04 09:43:27;;;;;;;3.30;1.77;;;15.80;36.10;;;15.08;32.42;96705.06;5044567;28;20049;-45
2021/05/04 09:46:01;;;;;;;2.25;1.75;;;15.90;35.60;;;15.24;33.76;96709.13;5027688;28;20054;-45
2021/05/04 09:48:34;;;;;;;2.78;1.70;;;16.00;37.40;;;15.23;31.96;96686.03;5042248;28;20051;-44
2021/05/04 09:51:25;;;;;;;1.58;1.48;;;16.10;35.50;;;15.18;30.51;96672.41;5034721;28;20045;-45
2021/05/04 09:56:33;;;;;;;2.05;1.80;;;15.90;33.40;;;15.16;31.14;96680.72;5043062;28;20059;-45
2021/05/04 09:59:03;;;;;;;6.35;2.22;;;16.00;33.80;;;15.27;31.10;96685.38;5040614;28;20060;-45
2021/05/04 10:01:32;;;;;;;6.32;3.17;;;16.10;34.00;;;15.28;30.45;96683.53;5027945;28;20053;-45
2021/05/04 10:04:05;;;;;;;3.53;1.80;;;16.00;33.40;;;15.38;31.74;96667.78;5036114;28;20044;-45
2021/05/04 10:06:35;;;;;;;4.03;1.90;;;16.10;35.10;;;15.35;31.85;96692.34;5041828;28;20041;-45
2021/05/04 10:09:05;;;;;;;3.90;1.98;;;16.10;35.10;;;15.31;31.60;96694.63;5042820;28;20037;-46
2021/05/04 10:11:33;;;;;;;3.05;1.98;;;16.00;35.00;;;15.23;31.18;96664.56;5025571;28;20057;-44
2021/05/04 10:14:03;;;;;;;4.75;2.03;;;15.90;34.20;;;15.24;31.19;96671.59;5040772;28;20060;-44
2021/05/04 10:16:32;;;;;;;3.03;1.85;;;16.00;34.40;;;15.26;31.28;96675.69;5036260;28;20133;-46
2021/05/04 10:19:06;;;;;;;2.85;1.80;;;16.00;34.50;;;15.27;30.61;96661.22;5028042;28;20053;-46
2021/05/04 10:21:35;;;;;;;3.17;1.98;;;16.00;33.30;;;15.18;30.59;96677.78;5027519;28;20064;-44
2021/05/04 10:24:04;;;;;;;2.05;1.70;;;15.90;33.50;;;15.34;31.56;96678.13;5028365;28;20053;-46
2021/05/04 10:26:33;;;;;;;3.65;2.40;;;16.10;34.60;;;15.39;31.12;96657.88;5025866;28;20489;-44
2021/05/04 10:29:07;;;;;;;2.25;1.88;;;16.20;34.10;;;15.42;31.00;96665.50;5028575;28;20050;-46
2021/05/04 10:31:41;;;;;;;2.60;1.70;;;16.20;33.90;;;15.49;30.84;96653.69;5026941;28;20050;-45
2021/05/04 10:34:26;;;;;;;3.78;2.35;;;16.30;34.00;;;15.43;30.19;96662.59;5026113;28;20056;-46
2021/05/04 10:36:58;;;;;;;2.53;1.92;;;16.20;32.80;;;15.49;30.78;96653.69;5027613;28;20595;-46
2021/05/04 10:39:39;;;;;;;2.92;1.83;;;16.30;34.10;;;15.50;30.74;96665.22;5026125;28;20061;-49
2021/05/04 10:42:14;;;;;;;2.55;1.95;;;16.30;33.80;;;15.48;30.50;96648.53;5025890;28;20067;-46
2021/05/04 10:44:58;;;;;;;2.88;1.52;;;16.20;33.70;;;15.40;30.32;96675.63;5025094;28;20065;-45
2021/05/04 10:47:47;;;;;;;3.35;2.10;;;16.20;33.40;;;15.48;30.60;96672.69;5026307;28;20045;-45
2021/05/04 10:50:27;;;;;;;3.03;1.88;;;16.20;33.50;;;15.40;30.49;96664.91;5024755;28;20064;-46